Главная страница
METAR-TAF:

METAR-TAF

Аэропорты :

Нукус, Узбекистан

широта: 42-28-48N, долгота: 059-37-48E, высота над уровнем моря: 77 м

Текущие метеонаблюдения

Эта сводка был подготовлена 52 минут назад, в 19:00 UTC
Ветер 10 Узел от восточно-северо-восточный
Температура 0°C
Влажность 55%
Давление 1027 hPa
Видимость 10 км и более
Нет облачности ниже 1500 м, и нет кучево-дождевой облачности

METAR: UTNN 191900Z 07010KT CAVOK M00/M08 Q1027 R15/CLRD60 NOSIG

Время: 00:52 (19:52 UTC)

Прогноз

Эта сводка был подготовлена 2 часа и 52 минут назад, в 17:00 UTC
Прогноз действительный с 19-го 18 UTC до 20-го 18 UTC
Ветер 6 Узел от восточно-северо-восточный
Видимость 10 км и более
Нет облачности ниже 1500 м, и нет кучево-дождевой облачности
временами
С 20-го 04 UTC до 20-го 14 UTC
Ветер 12 Узел от восточно-юго-восточный с порывами до 22 Узел

TAF: UTNN 191700Z 1918/2018 07006KT CAVOK TEMPO 2004/2014 12012G22KT

Метеонаблюдения и прогнозы для более 4000 аэропортов (сводки METAR и TAF).

Имеющиеся станции представлены на карте желтыми и красными точками.

Чтобы увидеть название станции, наведите на нее мышь.

Затем щелкните, чтобы увидеть метеонаблюдения и метеопрогнозы.

Управление картой: чтобы увеличить масштаб, щелкните зеленые кнопки с черным крестиком; чтобы уменьшить масштаб, щелкните зеленую кнопку с тире; для просмотра соседних карт щелкайте зеленые стрелки.


METAR-TAF: